Time;durP1;ratioP1;P1;durP2;ratioP2;P2;SDS_P1;SDS_P2;PMS_P1;PMS_P2;Temp;Humidity;BMP_temperature;BMP_pressure;BME280_temperature;BME280_humidity;BME280_pressure;Samples;Min_cycle;Max_cycle;Signal;HPM_P1;HPM_P2
2022/06/16 00:02:49;;;;;;;;;;;;;;;17.67;44.07031;102080.5;;;;-82
2022/06/16 00:07:48;;;;;;;;;;;;;;;17.61;44.23438;102081.3;;;;-82
2022/06/16 00:12:48;;;;;;;;;;;;;;;17.56;44.27539;102078.5;;;;-81
2022/06/16 00:17:48;;;;;;;;;;;;;;;17.52;44.34961;102084.6;;;;-81
2022/06/16 00:22:48;;;;;;;;;;;;;;;17.46;44.48047;102074.3;;;;-80
2022/06/16 00:27:50;;;;;;;;;;;;;;;17.4;44.28125;102077.5;;;;-83
2022/06/16 00:28:55;;;;;;;4.2;2.2;;;;;;;;;;;;;-81
2022/06/16 00:32:48;;;;;;;;;;;;;;;17.32;44.49023;102086.8;;;;-82
2022/06/16 00:37:48;;;;;;;;;;;;;;;17.25;44.24414;102087.8;;;;-81
2022/06/16 00:42:49;;;;;;;;;;;;;;;17.18;44.44141;102089.1;;;;-81
2022/06/16 00:47:50;;;;;;;;;;;;;;;17.08;44.35156;102092.4;;;;-83
2022/06/16 00:52:48;;;;;;;;;;;;;;;17;44.49219;102091.5;;;;-81
2022/06/16 00:57:50;;;;;;;;;;;;;;;16.92;44.5957;102096.9;;;;-82
2022/06/16 00:58:56;;;;;;;4.4;2.2;;;;;;;;;;;;;-82
2022/06/16 01:02:48;;;;;;;;;;;;;;;16.84;44.48535;102103.8;;;;-81
2022/06/16 01:07:50;;;;;;;;;;;;;;;16.75;44.66992;102102.7;;;;-83
2022/06/16 01:17:52;;;;;;;;;;;;;;;16.59;44.67676;102089.3;;;;-81
2022/06/16 01:22:57;;;;;;;;;;;;;;;16.49;44.70117;102089.6;;;;-82
2022/06/16 01:28:01;;;;;;;;;;;;;;;16.41;44.83887;102093.6;;;;-81
2022/06/16 01:29:09;;;;;;;4;2.1;;;;;;;;;;;;;-82
2022/06/16 01:32:53;;;;;;;;;;;;;;;16.32;44.90918;102091.4;;;;-81
2022/06/16 01:37:55;;;;;;;;;;;;;;;16.27;45.1875;102102.6;;;;-81
2022/06/16 01:42:52;;;;;;;;;;;;;;;16.19;44.97559;102110.2;;;;-81
2022/06/16 01:47:52;;;;;;;;;;;;;;;16.14;45.08398;102113;;;;-81
2022/06/16 01:52:51;;;;;;;;;;;;;;;16.02;45.05957;102124.7;;;;-82
2022/06/16 01:57:50;;;;;;;;;;;;;;;15.99;45.125;102125.4;;;;-82
2022/06/16 01:59:02;;;;;;;3.1;1.9;;;;;;;;;;;;;-83
2022/06/16 02:02:50;;;;;;;;;;;;;;;15.88;45.0918;102113.7;;;;-81
2022/06/16 02:07:52;;;;;;;;;;;;;;;15.8;45.24121;102117.9;;;;-82
2022/06/16 02:13:00;;;;;;;;;;;;;;;15.7;45.35645;102111.3;;;;-81
2022/06/16 02:17:48;;;;;;;;;;;;;;;15.65;45.3623;102112.8;;;;-83
2022/06/16 02:22:51;;;;;;;;;;;;;;;15.55;45.44238;102117.3;;;;-80
2022/06/16 02:27:48;;;;;;;;;;;;;;;15.47;45.45605;102123.8;;;;-82
2022/06/16 02:29:02;;;;;;;3.9;2;;;;;;;;;;;;;-82
2022/06/16 02:32:59;;;;;;;;;;;;;;;15.4;45.37109;102140.6;;;;-81
2022/06/16 02:38:00;;;;;;;;;;;;;;;15.33;45.54395;102150.5;;;;-81
2022/06/16 02:42:57;;;;;;;;;;;;;;;15.27;45.71777;102151.8;;;;-80
2022/06/16 02:47:57;;;;;;;;;;;;;;;15.27;45.85352;102149.9;;;;-81
2022/06/16 02:52:56;;;;;;;;;;;;;;;15.23;45.87305;102152.8;;;;-82
2022/06/16 02:57:50;;;;;;;;;;;;;;;15.19;45.95898;102143.9;;;;-81
2022/06/16 02:59:06;;;;;;;4;2.1;;;;;;;;;;;;;-80
2022/06/16 03:02:48;;;;;;;;;;;;;;;15.16;46.04688;102144.2;;;;-81
2022/06/16 03:07:49;;;;;;;;;;;;;;;15.14;46.08887;102157.6;;;;-81
2022/06/16 03:12:51;;;;;;;;;;;;;;;15.06;46.13672;102158.9;;;;-80
2022/06/16 03:17:49;;;;;;;;;;;;;;;15;46.28906;102151.8;;;;-81
2022/06/16 03:22:48;;;;;;;;;;;;;;;14.96;46.2959;102141;;;;-81
2022/06/16 03:27:48;;;;;;;;;;;;;;;14.92;46.33691;102149.5;;;;-82
2022/06/16 03:29:04;;;;;;;4.5;2;;;;;;;;;;;;;-82
2022/06/16 03:32:48;;;;;;;;;;;;;;;14.86;46.32031;102157.5;;;;-81
2022/06/16 03:37:48;;;;;;;;;;;;;;;14.82;46.31543;102166.9;;;;-80
2022/06/16 03:42:49;;;;;;;;;;;;;;;14.79;46.37891;102171.1;;;;-80
2022/06/16 03:47:49;;;;;;;;;;;;;;;14.77;46.37695;102182.3;;;;-81
2022/06/16 03:52:50;;;;;;;;;;;;;;;14.71;46.39355;102177.5;;;;-82
2022/06/16 03:57:48;;;;;;;;;;;;;;;14.69;46.40332;102192.9;;;;-81
2022/06/16 03:59:06;;;;;;;3.8;2.2;;;;;;;;;;;;;-82
2022/06/16 04:02:49;;;;;;;;;;;;;;;14.68;46.45801;102194.4;;;;-80
2022/06/16 04:07:48;;;;;;;;;;;;;;;14.64;46.31836;102202.9;;;;-81
2022/06/16 04:12:48;;;;;;;;;;;;;;;14.61;46.58789;102205.5;;;;-82
2022/06/16 04:17:48;;;;;;;;;;;;;;;14.62;46.57617;102223.2;;;;-82
2022/06/16 04:22:50;;;;;;;;;;;;;;;14.61;46.7334;102240.8;;;;-80
2022/06/16 04:27:49;;;;;;;;;;;;;;;14.6;47.01367;102253.6;;;;-80
2022/06/16 04:29:09;;;;;;;3.8;2.4;;;;;;;;;;;;;-79
2022/06/16 04:32:50;;;;;;;;;;;;;;;14.58;47.03418;102246.2;;;;-82
2022/06/16 04:37:48;;;;;;;;;;;;;;;14.55;47.08691;102257.2;;;;-82
2022/06/16 04:42:52;;;;;;;;;;;;;;;14.55;47.23438;102256;;;;-81
2022/06/16 04:47:49;;;;;;;;;;;;;;;14.58;47.1123;102256;;;;-78
2022/06/16 04:52:49;;;;;;;;;;;;;;;14.57;47.17969;102256.1;;;;-81
2022/06/16 04:57:50;;;;;;;;;;;;;;;14.61;47.10547;102265.7;;;;-79
2022/06/16 04:59:10;;;;;;;4.6;2.3;;;;;;;;;;;;;-82
2022/06/16 05:02:49;;;;;;;;;;;;;;;14.63;47.00586;102267.8;;;;-82
2022/06/16 05:07:48;;;;;;;;;;;;;;;14.69;46.8877;102276.1;;;;-82
2022/06/16 05:12:57;;;;;;;;;;;;;;;14.73;46.94922;102289.5;;;;-80
2022/06/16 05:17:48;;;;;;;;;;;;;;;14.83;46.9707;102294.2;;;;-80
2022/06/16 05:22:48;;;;;;;;;;;;;;;15.06;47.05176;102298;;;;-82
2022/06/16 05:27:56;;;;;;;;;;;;;;;15.66;46.78906;102296.6;;;;-81
2022/06/16 05:29:12;;;;;;;5.6;2.4;;;;;;;;;;;;;-81
2022/06/16 05:32:51;;;;;;;;;;;;;;;16.5;45.6543;102306.1;;;;-81
2022/06/16 05:37:48;;;;;;;;;;;;;;;17.36;44.17578;102307.7;;;;-81
2022/06/16 05:42:54;;;;;;;;;;;;;;;18.17;42.91211;102303.6;;;;-83
2022/06/16 05:47:51;;;;;;;;;;;;;;;18.92;41.86816;102305.9;;;;-82
2022/06/16 05:52:49;;;;;;;;;;;;;;;19.6;41.14355;102310.4;;;;-83
2022/06/16 05:57:51;;;;;;;;;;;;;;;20.25;40.35645;102306.8;;;;-79
2022/06/16 05:59:15;;;;;;;4.3;2.3;;;;;;;;;;;;;-81
2022/06/16 06:02:49;;;;;;;;;;;;;;;20.85;39.76953;102306.9;;;;-81
2022/06/16 06:17:48;;;;;;;;;;;;;;;22.57;38.18457;102308;;;;-83
2022/06/16 06:22:50;;;;;;;;;;;;;;;23.09;37.7334;102302.3;;;;-80
2022/06/16 06:27:53;;;;;;;;;;;;;;;23.61;37.23535;102297.6;;;;-80
2022/06/16 06:29:17;;;;;;;3.3;1.9;;;;;;;;;;;;;-83
2022/06/16 06:32:49;;;;;;;;;;;;;;;24.07;36.69629;102286.2;;;;-83
2022/06/16 06:37:49;;;;;;;;;;;;;;;24.49;36.20996;102288.4;;;;-82
2022/06/16 06:42:49;;;;;;;;;;;;;;;24.88;35.68457;102286.5;;;;-82
2022/06/16 06:47:48;;;;;;;;;;;;;;;25.25;35.54004;102285.2;;;;-82
2022/06/16 06:52:51;;;;;;;;;;;;;;;25.57;35.11328;102288.1;;;;-83
2022/06/16 06:57:53;;;;;;;;;;;;;;;25.86;34.87988;102286.9;;;;-81
2022/06/16 06:59:24;;;;;;;3.1;1.4;;;;;;;;;;;;;-82
2022/06/16 07:02:50;;;;;;;;;;;;;;;26.2;34.46484;102298;;;;-81
2022/06/16 07:07:49;;;;;;;;;;;;;;;26.47;34.27637;102301.2;;;;-83
2022/06/16 07:12:48;;;;;;;;;;;;;;;26.76;33.82129;102292.7;;;;-82
2022/06/16 07:17:49;;;;;;;;;;;;;;;26.99;33.41895;102293.9;;;;-82
2022/06/16 07:22:48;;;;;;;;;;;;;;;27.21;33.27344;102289.2;;;;-77
2022/06/16 07:27:50;;;;;;;;;;;;;;;27.43;32.55371;102296.5;;;;-77
2022/06/16 07:29:24;;;;;;;3.1;1.4;;;;;;;;;;;;;-77
2022/06/16 07:32:49;;;;;;;;;;;;;;;27.55;32.17773;102304.1;;;;-77
2022/06/16 07:37:48;;;;;;;;;;;;;;;27.66;32.16211;102316.6;;;;-76
2022/06/16 07:42:49;;;;;;;;;;;;;;;27.83;31.99902;102326.5;;;;-76
2022/06/16 07:47:48;;;;;;;;;;;;;;;27.95;31.90234;102329.6;;;;-76
2022/06/16 07:52:48;;;;;;;;;;;;;;;28.06;31.72461;102333;;;;-76
2022/06/16 07:57:53;;;;;;;;;;;;;;;28.24;31.62012;102333;;;;-77
2022/06/16 07:59:28;;;;;;;2.3;1.3;;;;;;;;;;;;;-77
2022/06/16 08:02:48;;;;;;;;;;;;;;;28.34;31.54492;102337.4;;;;-79
2022/06/16 08:07:48;;;;;;;;;;;;;;;28.46;31.10938;102337.3;;;;-75
2022/06/16 08:12:48;;;;;;;;;;;;;;;28.51;30.78516;102330;;;;-78
2022/06/16 08:17:50;;;;;;;;;;;;;;;28.53;30.78711;102341.4;;;;-76
2022/06/16 08:22:48;;;;;;;;;;;;;;;28.73;30.75293;102347.5;;;;-77
2022/06/16 08:27:52;;;;;;;;;;;;;;;28.93;30.66113;102348.4;;;;-78
2022/06/16 08:29:32;;;;;;;2.7;1.2;;;;;;;;;;;;;-77
2022/06/16 08:32:48;;;;;;;;;;;;;;;29.14;30.42969;102346.9;;;;-77
2022/06/16 08:37:48;;;;;;;;;;;;;;;29.31;30.08984;102343.1;;;;-76
2022/06/16 08:42:52;;;;;;;;;;;;;;;29.47;29.90039;102352.2;;;;-75
2022/06/16 08:47:53;;;;;;;;;;;;;;;29.64;29.51367;102353.3;;;;-77
2022/06/16 08:52:56;;;;;;;;;;;;;;;29.81;29.0791;102354.5;;;;-76
2022/06/16 08:57:56;;;;;;;;;;;;;;;29.84;29.0459;102358.7;;;;-77
2022/06/16 08:59:41;;;;;;;3;1.3;;;;;;;;;;;;;-76
2022/06/16 09:02:55;;;;;;;;;;;;;;;29.98;28.7959;102363.5;;;;-76
2022/06/16 09:07:53;;;;;;;;;;;;;;;30.13;28.47656;102363.2;;;;-76
2022/06/16 09:12:52;;;;;;;;;;;;;;;30.28;28.25098;102361.5;;;;-76
2022/06/16 09:17:52;;;;;;;;;;;;;;;30.44;27.96777;102366.3;;;;-76
2022/06/16 09:22:58;;;;;;;;;;;;;;;30.61;27.76563;102370.5;;;;-76
2022/06/16 09:27:51;;;;;;;;;;;;;;;30.78;27.30566;102377.9;;;;-75
2022/06/16 09:29:44;;;;;;;3.8;1.6;;;;;;;;;;;;;-75
2022/06/16 09:32:51;;;;;;;;;;;;;;;30.97;27.50586;102378.9;;;;-74
2022/06/16 09:37:51;;;;;;;;;;;;;;;31.23;27.15625;102387;;;;-74
2022/06/16 09:42:53;;;;;;;;;;;;;;;31.45;27.08691;102390;;;;-74
2022/06/16 09:47:52;;;;;;;;;;;;;;;31.71;26.72559;102391.5;;;;-75
2022/06/16 09:52:52;;;;;;;;;;;;;;;31.91;26.41895;102399.4;;;;-74
2022/06/16 09:57:51;;;;;;;;;;;;;;;32.09;26.5;102394.3;;;;-75
2022/06/16 09:59:49;;;;;;;2.8;1.4;;;;;;;;;;;;;-75
2022/06/16 10:02:49;;;;;;;;;;;;;;;32.37;26.15039;102398.1;;;;-76
2022/06/16 10:07:51;;;;;;;;;;;;;;;32.66;26.21387;102404.9;;;;-79
2022/06/16 10:12:53;;;;;;;;;;;;;;;32.94;25.99316;102399.6;;;;-76
2022/06/16 10:17:51;;;;;;;;;;;;;;;33.01;25.27637;102402.5;;;;-75
2022/06/16 10:22:50;;;;;;;;;;;;;;;32.81;25.33594;102402.6;;;;-76
2022/06/16 10:27:50;;;;;;;;;;;;;;;33.12;25.84961;102405.3;;;;-77
2022/06/16 10:29:59;;;;;;;2.4;1.3;;;;;;;;;;;;;-77
2022/06/16 10:32:49;;;;;;;;;;;;;;;33.37;25.59277;102411;;;;-76
2022/06/16 10:37:49;;;;;;;;;;;;;;;33.56;25.36621;102404.1;;;;-76
2022/06/16 10:42:50;;;;;;;;;;;;;;;33.72;25.50488;102409;;;;-77
2022/06/16 10:47:51;;;;;;;;;;;;;;;33.81;25.36816;102413.3;;;;-77
2022/06/16 10:52:51;;;;;;;;;;;;;;;33.98;26.39648;102417;;;;-76
2022/06/16 10:57:49;;;;;;;;;;;;;;;34.12;26.27441;102423.5;;;;-78
2022/06/16 11:00:00;;;;;;;6;1.6;;;;;;;;;;;;;-78
2022/06/16 11:02:59;;;;;;;;;;;;;;;34.24;26.625;102425.4;;;;-76
2022/06/16 11:07:48;;;;;;;;;;;;;;;34.41;26.76563;102423;;;;-77
2022/06/16 11:12:49;;;;;;;;;;;;;;;34.6;26.84766;102428.8;;;;-77
2022/06/16 11:17:51;;;;;;;;;;;;;;;34.77;27;102420.9;;;;-77
2022/06/16 11:22:49;;;;;;;;;;;;;;;34.96;26.00195;102417.1;;;;-77
2022/06/16 11:27:49;;;;;;;;;;;;;;;35.2;26.40723;102416.8;;;;-78
2022/06/16 11:30:03;;;;;;;2.4;1.4;;;;;;;;;;;;;-77
2022/06/16 11:32:50;;;;;;;;;;;;;;;35.39;26.46582;102420.2;;;;-77
2022/06/16 11:38:00;;;;;;;;;;;;;;;35.42;26.6582;102418.9;;;;-77
2022/06/16 11:42:58;;;;;;;;;;;;;;;35.47;26.88672;102413.5;;;;-78
2022/06/16 11:47:59;;;;;;;;;;;;;;;35.51;26.68652;102425.4;;;;-77
2022/06/16 11:52:53;;;;;;;;;;;;;;;35.51;25.49805;102427.7;;;;-78
2022/06/16 11:57:53;;;;;;;;;;;;;;;35.6;26.4541;102443.7;;;;-80
2022/06/16 12:00:16;;;;;;;4.8;1.6;;;;;;;;;;;;;-77
2022/06/16 12:03:08;;;;;;;;;;;;;;;35.66;25.81543;102438.2;;;;-77
2022/06/16 12:07:55;;;;;;;;;;;;;;;35.66;26.19629;102435.7;;;;-78
2022/06/16 12:12:55;;;;;;;;;;;;;;;35.76;25.79785;102438.8;;;;-78
2022/06/16 12:17:52;;;;;;;;;;;;;;;35.86;26.50488;102441.1;;;;-76
2022/06/16 12:22:51;;;;;;;;;;;;;;;35.9;26.31641;102434.2;;;;-76
2022/06/16 12:27:50;;;;;;;;;;;;;;;35.97;26.17773;102416.1;;;;-77
2022/06/16 12:30:17;;;;;;;2.8;1.5;;;;;;;;;;;;;-78
2022/06/16 12:32:51;;;;;;;;;;;;;;;36.04;26.99121;102427.4;;;;-77
2022/06/16 12:37:51;;;;;;;;;;;;;;;35.98;26.54785;102440.5;;;;-76
2022/06/16 12:42:52;;;;;;;;;;;;;;;36.01;26.96582;102443.8;;;;-79
2022/06/16 12:47:52;;;;;;;;;;;;;;;36.06;26.44531;102444.7;;;;-75
2022/06/16 12:52:52;;;;;;;;;;;;;;;36.18;26.9043;102441.3;;;;-78
2022/06/16 12:57:50;;;;;;;;;;;;;;;36.32;25.9834;102441.2;;;;-78
2022/06/16 13:00:23;;;;;;;2.5;1.6;;;;;;;;;;;;;-79
2022/06/16 13:02:51;;;;;;;;;;;;;;;36.51;26.00586;102428.8;;;;-78
2022/06/16 13:07:51;;;;;;;;;;;;;;;36.59;26.58301;102417.4;;;;-77
2022/06/16 13:12:55;;;;;;;;;;;;;;;36.56;26.35449;102408.3;;;;-77
2022/06/16 13:17:54;;;;;;;;;;;;;;;36.61;26.92871;102416.3;;;;-77
2022/06/16 13:22:48;;;;;;;;;;;;;;;36.7;27.06641;102416.5;;;;-78
2022/06/16 13:27:52;;;;;;;;;;;;;;;36.77;26.58105;102422.1;;;;-79
2022/06/16 13:30:40;;;;;;;2.9;1.6;;;;;;;;;;;;;-77
2022/06/16 13:32:58;;;;;;;;;;;;;;;36.77;26.39063;102424.6;;;;-78
2022/06/16 13:37:51;;;;;;;;;;;;;;;36.75;26.11426;102422.3;;;;-77
2022/06/16 13:42:50;;;;;;;;;;;;;;;36.74;26.15039;102415.4;;;;-78
2022/06/16 13:47:50;;;;;;;;;;;;;;;36.81;25.16504;102415.6;;;;-78
2022/06/16 13:52:58;;;;;;;;;;;;;;;36.91;25.89746;102417.1;;;;-78
2022/06/16 13:57:48;;;;;;;;;;;;;;;36.91;25.34863;102428.9;;;;-75
2022/06/16 14:00:37;;;;;;;4.1;1.7;;;;;;;;;;;;;-77
2022/06/16 14:03:01;;;;;;;;;;;;;;;36.86;25.91895;102441.8;;;;-78
2022/06/16 14:08:00;;;;;;;;;;;;;;;36.71;25.74316;102435.8;;;;-77
2022/06/16 14:13:01;;;;;;;;;;;;;;;36.63;26.12012;102439.2;;;;-78
2022/06/16 14:17:59;;;;;;;;;;;;;;;36.46;26.05176;102443.2;;;;-77
2022/06/16 14:22:50;;;;;;;;;;;;;;;36.42;26.83496;102444.9;;;;-76
2022/06/16 14:26:47;;;;;;;;;;;;;;;36.68;26.04004;102443.8;;;;-76
2022/06/16 14:29:33;;;;;;;;;;;;;;;36.43;26.64551;102442;;;;-78
2022/06/16 14:30:41;;;;;;;3;1.6;;;;;;;;;;;;;-76
2022/06/16 14:34:34;;;;;;;;;;;;;;;36.35;26.33105;102433.2;;;;-76
2022/06/16 14:39:35;;;;;;;;;;;;;;;36.35;25.9375;102421.8;;;;-77
2022/06/16 14:44:33;;;;;;;;;;;;;;;36.35;25.86621;102413.8;;;;-77
2022/06/16 14:49:35;;;;;;;;;;;;;;;36.32;25.85254;102404.9;;;;-78
2022/06/16 14:54:34;;;;;;;;;;;;;;;36.27;25.80176;102399.9;;;;-77
2022/06/16 14:59:36;;;;;;;;;;;;;;;36.12;25.76953;102406.3;;;;-77
2022/06/16 15:00:46;;;;;;;4;1.9;;;;;;;;;;;;;-77
2022/06/16 15:04:34;;;;;;;;;;;;;;;35.91;25.73438;102401.7;;;;-77
2022/06/16 15:09:33;;;;;;;;;;;;;;;35.75;26.07031;102398.2;;;;-77
2022/06/16 15:14:32;;;;;;;;;;;;;;;35.6;26.34766;102399;;;;-78
2022/06/16 15:19:33;;;;;;;;;;;;;;;35.41;26.38379;102408.8;;;;-78
2022/06/16 15:24:44;;;;;;;;;;;;;;;35.21;26.75293;102405.8;;;;-77
2022/06/16 15:29:34;;;;;;;;;;;;;;;34.97;26.71484;102413.1;;;;-79
2022/06/16 15:30:52;;;;;;;4.7;1.9;;;;;;;;;;;;;-78
2022/06/16 15:39:34;;;;;;;;;;;;;;;34.47;27.45703;102423.4;;;;-76
2022/06/16 15:44:34;;;;;;;;;;;;;;;34.29;27.60059;102410;;;;-79
2022/06/16 15:49:36;;;;;;;;;;;;;;;34.14;27.55566;102405.4;;;;-78
2022/06/16 15:54:33;;;;;;;;;;;;;;;33.92;27.8623;102386;;;;-79
2022/06/16 15:59:32;;;;;;;;;;;;;;;33.67;28.02441;102379.5;;;;-77
2022/06/16 16:00:58;;;;;;;3.2;2;;;;;;;;;;;;;-77
2022/06/16 16:04:32;;;;;;;;;;;;;;;33.37;28.19629;102400.7;;;;-76
2022/06/16 16:09:32;;;;;;;;;;;;;;;33.05;28.69531;102387.8;;;;-77
2022/06/16 16:14:41;;;;;;;;;;;;;;;32.77;28.98535;102393;;;;-78
2022/06/16 16:19:31;;;;;;;;;;;;;;;32.45;29.07129;102379.9;;;;-77
2022/06/16 16:24:36;;;;;;;;;;;;;;;32.14;29.38184;102367;;;;-77
2022/06/16 16:29:32;;;;;;;;;;;;;;;31.84;29.09082;102373.4;;;;-76
2022/06/16 16:31:11;;;;;;;4.6;2.1;;;;;;;;;;;;;-76
2022/06/16 16:34:37;;;;;;;;;;;;;;;31.62;29.90137;102390.2;;;;-75
2022/06/16 16:39:34;;;;;;;;;;;;;;;31.46;29.9502;102379.6;;;;-75
2022/06/16 16:44:40;;;;;;;;;;;;;;;31.34;29.94238;102384;;;;-76
2022/06/16 16:49:44;;;;;;;;;;;;;;;31.24;30.18164;102399.3;;;;-77
2022/06/16 16:54:31;;;;;;;;;;;;;;;31.16;30.1416;102412.3;;;;-77
2022/06/16 16:59:31;;;;;;;;;;;;;;;31.05;30.39355;102407.9;;;;-77
2022/06/16 17:01:08;;;;;;;2.8;2;;;;;;;;;;;;;-76
2022/06/16 17:04:37;;;;;;;;;;;;;;;30.96;30.24609;102392.6;;;;-78
2022/06/16 17:09:31;;;;;;;;;;;;;;;30.81;30.55371;102371.1;;;;-77
2022/06/16 17:14:33;;;;;;;;;;;;;;;30.65;30.63672;102383.1;;;;-76
2022/06/16 17:19:34;;;;;;;;;;;;;;;30.47;30.71875;102365;;;;-75
2022/06/16 17:24:32;;;;;;;;;;;;;;;30.33;30.7207;102365.1;;;;-77
2022/06/16 17:29:32;;;;;;;;;;;;;;;30.23;31.10156;102369.4;;;;-76
2022/06/16 17:31:13;;;;;;;3.6;2.1;;;;;;;;;;;;;-76
2022/06/16 17:34:34;;;;;;;;;;;;;;;30.16;31.17871;102381.6;;;;-79
2022/06/16 17:39:33;;;;;;;;;;;;;;;30.11;30.87012;102382.5;;;;-80
2022/06/16 17:44:32;;;;;;;;;;;;;;;29.97;31.13086;102389.5;;;;-76
2022/06/16 17:49:31;;;;;;;;;;;;;;;29.79;31.17773;102382.9;;;;-77
2022/06/16 17:59:43;;;;;;;;;;;;;;;29.4;31.75879;102384.9;;;;-77
2022/06/16 18:01:18;;;;;;;4.1;2.4;;;;;;;;;;;;;-78
2022/06/16 18:04:31;;;;;;;;;;;;;;;29.23;31.72363;102369.7;;;;-77
2022/06/16 18:09:33;;;;;;;;;;;;;;;29;31.68359;102366.2;;;;-85
2022/06/16 18:14:46;;;;;;;;;;;;;;;28.83;31.75488;102354.9;;;;-85
2022/06/16 18:19:32;;;;;;;;;;;;;;;28.62;31.77441;102349;;;;-83
2022/06/16 18:24:33;;;;;;;;;;;;;;;28.42;31.76074;102348.9;;;;-84
2022/06/16 18:29:34;;;;;;;;;;;;;;;28.21;31.76953;102345.9;;;;-84
2022/06/16 18:31:32;;;;;;;5.1;2.3;;;;;;;;;;;;;-85
2022/06/16 18:34:46;;;;;;;;;;;;;;;27.97;31.74121;102334.4;;;;-84
2022/06/16 19:32:23;;;;;;;5.8;2.7;;;;;;;;;;;;;-88
2022/06/16 19:57:31;;;;;;;;;;;;;;;24.61;35.17676;102410.1;;;;-91
2022/06/16 20:18:12;;;;;;;;;;;;;;;23.94;35.80664;102420.5;;;;-89
2022/06/16 20:25:53;;;;;;;;;;;;;;;23.16;36.88574;102438.5;;;;-88
2022/06/16 20:31:45;;;;;;;4.6;2.7;;;;;;;;;;;;;-89
2022/06/16 20:35:51;;;;;;;;;;;;;;;22.78;37.39648;102449.8;;;;-89
2022/06/16 21:05:03;;;;;;;;;;;;;;;21.79;39.25684;102418.1;;;;-84
2022/06/16 21:10:06;;;;;;;;;;;;;;;21.64;39.2998;102422.2;;;;-85
2022/06/16 21:15:04;;;;;;;;;;;;;;;21.5;39.45996;102429.4;;;;-84
2022/06/16 21:20:03;;;;;;;;;;;;;;;21.36;39.71191;102438.4;;;;-83
2022/06/16 21:25:13;;;;;;;;;;;;;;;21.21;40.1582;102439.6;;;;-83
2022/06/16 21:30:02;;;;;;;;;;;;;;;21.09;40.08984;102449.8;;;;-82
2022/06/16 21:31:56;;;;;;;5.3;3.2;;;;;;;;;;;;;-85
2022/06/16 21:35:01;;;;;;;;;;;;;;;20.94;40.31641;102443.3;;;;-82
2022/06/16 21:40:01;;;;;;;;;;;;;;;20.81;40.58105;102448.4;;;;-82
2022/06/16 21:45:04;;;;;;;;;;;;;;;20.68;40.92285;102443.1;;;;-84
2022/06/16 21:50:01;;;;;;;;;;;;;;;20.55;41.3125;102440.7;;;;-83
2022/06/16 21:54:59;;;;;;;;;;;;;;;20.44;41.67969;102442.6;;;;-84
2022/06/16 21:59:59;;;;;;;;;;;;;;;20.29;41.72266;102434;;;;-85
2022/06/16 22:01:47;;;;;;;5.2;3.5;;;;;;;;;;;;;-81
2022/06/16 22:05:01;;;;;;;;;;;;;;;20.18;41.96387;102442.6;;;;-85
2022/06/16 22:10:02;;;;;;;;;;;;;;;20.06;42.20508;102448.2;;;;-82
2022/06/16 22:20:03;;;;;;;;;;;;;;;19.87;42.74609;102456;;;;-84
2022/06/16 22:24:59;;;;;;;;;;;;;;;19.76;42.86133;102452.8;;;;-85
2022/06/16 22:29:59;;;;;;;;;;;;;;;19.64;43.05566;102437.8;;;;-82
2022/06/16 22:31:50;;;;;;;5.7;3.5;;;;;;;;;;;;;-84
2022/06/16 22:34:59;;;;;;;;;;;;;;;19.56;43.03711;102435.3;;;;-83
2022/06/16 22:45:05;;;;;;;;;;;;;;;19.38;43.06348;102446.1;;;;-84
2022/06/16 22:50:01;;;;;;;;;;;;;;;19.31;42.89746;102448.5;;;;-84
2022/06/16 22:59:59;;;;;;;;;;;;;;;19.2;43.05859;102449.9;;;;-83
2022/06/16 23:01:54;;;;;;;6.4;3.6;;;;;;;;;;;;;-86
2022/06/16 23:05:00;;;;;;;;;;;;;;;19.13;43.2793;102441.8;;;;-84
2022/06/16 23:10:00;;;;;;;;;;;;;;;19.09;43.29785;102442.3;;;;-85
2022/06/16 23:15:02;;;;;;;;;;;;;;;19.02;43.46387;102444.1;;;;-84
2022/06/16 23:20:00;;;;;;;;;;;;;;;18.96;43.41113;102438.7;;;;-83
2022/06/16 23:25:00;;;;;;;;;;;;;;;18.92;43.44141;102446.1;;;;-85
2022/06/16 23:30:14;;;;;;;;;;;;;;;18.88;43.87109;102443.5;;;;-83
2022/06/16 23:32:04;;;;;;;5.2;3.5;;;;;;;;;;;;;-84
2022/06/16 23:35:09;;;;;;;;;;;;;;;18.85;43.60645;102444.1;;;;-85
2022/06/16 23:40:02;;;;;;;;;;;;;;;18.82;44.44629;102431;;;;-84
2022/06/16 23:45:00;;;;;;;;;;;;;;;18.84;44.54004;102432.8;;;;-83
2022/06/16 23:50:00;;;;;;;;;;;;;;;18.82;44.71973;102435.7;;;;-84
2022/06/16 23:54:59;;;;;;;;;;;;;;;18.8;44.23926;102441.4;;;;-85
